createdAt,value
2022-08-23T00:02:29.062Z,66.24
2022-08-23T00:05:09.185Z,66.86
2022-08-23T00:07:41.910Z,66.94
2022-08-23T00:10:15.075Z,66.59
2022-08-23T00:12:46.386Z,66.25
2022-08-23T00:15:18.316Z,66.57
2022-08-23T00:17:47.846Z,66.93
2022-08-23T00:20:20.356Z,65.80
2022-08-23T00:22:49.285Z,65.56
2022-08-23T00:25:18.882Z,65.91
2022-08-23T00:27:50.168Z,66.40
2022-08-23T00:30:20.358Z,65.92
2022-08-23T00:32:51.681Z,65.76
2022-08-23T00:35:28.465Z,67.15
2022-08-23T00:38:32.372Z,66.21
2022-08-23T00:40:52.820Z,66.27
2022-08-23T00:43:50.792Z,66.69
2022-08-23T00:46:52.868Z,68.16
2022-08-23T00:49:22.016Z,68.97
2022-08-23T00:52:01.887Z,67.89
2022-08-23T00:54:32.090Z,69.62
2022-08-23T00:57:06.105Z,69.20
2022-08-23T00:59:37.246Z,69.28
2022-08-23T01:02:09.443Z,68.28
2022-08-23T01:04:41.226Z,67.10
2022-08-23T01:07:16.092Z,67.85
2022-08-23T01:09:45.156Z,68.17
2022-08-23T01:12:22.003Z,68.29
2022-08-23T01:15:16.517Z,69.84
2022-08-23T01:17:49.904Z,67.95
2022-08-23T01:20:22.504Z,67.77
2022-08-23T01:23:17.112Z,66.90
2022-08-23T01:25:45.166Z,67.45
2022-08-23T01:28:14.364Z,67.55
2022-08-23T01:30:46.946Z,69.65
2022-08-23T01:33:18.506Z,68.01
2022-08-23T01:35:53.830Z,67.30
2022-08-23T01:38:23.870Z,69.18
2022-08-23T01:40:52.978Z,68.49
2022-08-23T01:43:23.849Z,68.91
2022-08-23T01:45:52.691Z,67.97
2022-08-23T01:48:22.752Z,67.65
2022-08-23T01:50:52.297Z,68.94
2022-08-23T01:53:20.525Z,69.11
2022-08-23T01:55:49.139Z,67.70
2022-08-23T01:58:18.861Z,68.02
2022-08-23T02:00:47.326Z,67.89
2022-08-23T02:03:18.872Z,68.21
2022-08-23T02:05:46.757Z,68.75
2022-08-23T02:08:33.485Z,68.40
2022-08-23T02:11:08.970Z,68.88
2022-08-23T02:13:37.575Z,67.99
2022-08-23T02:16:08.392Z,67.67
2022-08-23T02:18:37.304Z,66.97
2022-08-23T02:23:36.185Z,67.64
2022-08-23T02:26:07.745Z,67.63
2022-08-23T02:28:38.124Z,67.88
2022-08-23T02:31:09.649Z,67.84
2022-08-23T02:36:31.329Z,67.86
2022-08-23T02:39:00.996Z,68.48
2022-08-23T02:41:33.347Z,68.12
2022-08-23T02:44:04.712Z,67.91
2022-08-23T02:46:34.104Z,67.75
2022-08-23T02:49:02.360Z,68.27
2022-08-23T02:51:31.180Z,68.00
2022-08-23T02:53:59.606Z,67.89
2022-08-23T02:56:27.510Z,67.85
2022-08-23T02:59:00.390Z,68.25
2022-08-23T03:01:35.913Z,68.25
2022-08-23T03:04:06.813Z,67.47
2022-08-23T03:06:35.782Z,69.23
2022-08-23T03:09:05.826Z,68.34
2022-08-23T03:11:34.676Z,67.70
2022-08-23T03:14:05.641Z,67.65
2022-08-23T03:16:36.392Z,67.55
2022-08-23T03:19:04.829Z,69.03
2022-08-23T03:21:32.879Z,69.90
2022-08-23T03:24:08.044Z,68.11
2022-08-23T03:26:43.674Z,68.48
2022-08-23T03:29:12.389Z,67.75
2022-08-23T03:31:42.978Z,68.36
2022-08-23T03:34:12.576Z,68.38
2022-08-23T03:36:43.232Z,67.98
2022-08-23T03:39:12.377Z,67.71
2022-08-23T03:41:44.248Z,67.91
2022-08-23T03:44:17.062Z,68.17
2022-08-23T03:46:48.699Z,67.91
2022-08-23T03:49:17.892Z,69.02
2022-08-23T03:51:50.263Z,69.46
2022-08-23T03:54:20.625Z,68.68
2022-08-23T03:56:55.264Z,69.18
2022-08-23T03:59:24.176Z,68.24
2022-08-23T04:01:52.285Z,68.05
2022-08-23T04:04:21.619Z,68.38
2022-08-23T04:06:51.702Z,70.19
2022-08-23T04:09:22.803Z,69.56
2022-08-23T04:11:52.361Z,69.02
2022-08-23T04:14:23.524Z,69.15
2022-08-23T04:16:51.879Z,67.87
2022-08-23T04:19:23.782Z,68.26
2022-08-23T04:21:54.306Z,67.84
2022-08-23T04:24:23.516Z,68.13
2022-08-23T04:26:54.477Z,68.30
2022-08-23T04:29:34.404Z,68.23
2022-08-23T04:32:05.573Z,67.97
2022-08-23T04:34:40.057Z,68.43
2022-08-23T04:37:10.502Z,68.89
2022-08-23T04:39:58.111Z,68.10
2022-08-23T04:42:30.317Z,67.93
2022-08-23T04:45:01.549Z,68.60
2022-08-23T04:47:30.186Z,68.41
2022-08-23T04:50:00.573Z,67.63
2022-08-23T04:52:29.599Z,67.65
2022-08-23T04:55:00.573Z,67.17
2022-08-23T04:57:35.043Z,66.76
2022-08-23T05:00:04.552Z,67.15
2022-08-23T05:02:34.520Z,67.44
2022-08-23T05:05:02.987Z,67.42
2022-08-23T05:07:42.201Z,66.53
2022-08-23T05:10:13.632Z,67.00
2022-08-23T05:12:45.481Z,67.38
2022-08-23T05:15:16.002Z,67.64
2022-08-23T05:17:44.703Z,67.08
2022-08-23T05:20:13.306Z,67.57
2022-08-23T05:22:43.205Z,67.63
2022-08-23T05:25:13.217Z,66.88
2022-08-23T05:30:14.444Z,66.89
2022-08-23T05:32:49.487Z,67.32
2022-08-23T05:35:22.500Z,67.05
2022-08-23T05:37:55.710Z,66.88
2022-08-23T05:40:27.384Z,66.32
2022-08-23T05:42:58.194Z,66.34
2022-08-23T05:45:26.231Z,66.46
2022-08-23T05:47:55.867Z,66.77
2022-08-23T05:50:24.183Z,67.33
2022-08-23T05:52:52.236Z,66.56
2022-08-23T05:55:34.534Z,66.17
2022-08-23T05:58:05.624Z,65.62
2022-08-23T06:00:37.837Z,66.52
2022-08-23T06:03:14.812Z,66.75
2022-08-23T06:05:44.066Z,66.37
2022-08-23T06:08:12.704Z,66.40
2022-08-23T06:10:42.583Z,66.04
2022-08-23T06:13:12.083Z,65.21
2022-08-23T06:15:45.101Z,65.58
2022-08-23T06:18:14.554Z,64.81
2022-08-23T06:20:42.618Z,65.20
2022-08-23T06:23:12.061Z,65.64
2022-08-23T06:25:40.891Z,64.92
2022-08-23T06:28:09.568Z,64.73
2022-08-23T06:30:40.002Z,64.83
2022-08-23T06:33:10.289Z,64.97
2022-08-23T06:35:41.756Z,64.55
2022-08-23T06:38:10.447Z,64.05
2022-08-23T06:40:42.615Z,64.18
2022-08-23T06:43:12.330Z,64.06
2022-08-23T06:45:44.070Z,64.75
2022-08-23T06:48:21.138Z,64.81
2022-08-23T06:50:49.616Z,65.02
2022-08-23T06:53:22.849Z,65.28
2022-08-23T06:55:51.012Z,65.61
2022-08-23T06:58:21.179Z,65.36
2022-08-23T07:00:54.253Z,64.99
2022-08-23T07:03:26.695Z,64.71
2022-08-23T07:05:56.803Z,65.28
2022-08-23T07:08:24.978Z,65.45
2022-08-23T07:10:57.168Z,65.52
2022-08-23T07:13:25.969Z,65.39
2022-08-23T07:16:01.238Z,65.92
2022-08-23T07:18:30.555Z,65.48
2022-08-23T07:21:00.291Z,65.37
2022-08-23T07:23:28.280Z,65.15
2022-08-23T07:25:56.811Z,65.53
2022-08-23T07:28:25.912Z,65.17
2022-08-23T07:30:55.405Z,65.86
2022-08-23T07:33:24.131Z,65.55
2022-08-23T07:35:54.668Z,65.07
2022-08-23T07:38:30.537Z,64.41
2022-08-23T07:41:00.607Z,64.43
2022-08-23T07:43:32.279Z,63.64
2022-08-23T07:46:04.395Z,63.34
2022-08-23T07:48:52.890Z,63.12
2022-08-23T07:51:22.141Z,62.38
2022-08-23T07:53:51.214Z,63.53
2022-08-23T07:56:21.160Z,62.32
2022-08-23T07:58:53.756Z,62.56
2022-08-23T08:01:24.493Z,62.14
2022-08-23T08:03:55.587Z,61.60
2022-08-23T08:06:27.749Z,60.73
2022-08-23T08:08:56.980Z,60.52
2022-08-23T08:11:34.297Z,60.23
2022-08-23T08:14:08.746Z,58.86
2022-08-23T08:16:40.488Z,57.93
2022-08-23T08:19:12.072Z,58.34
2022-08-23T08:21:46.178Z,58.95
2022-08-23T08:24:16.668Z,58.60
2022-08-23T08:26:45.519Z,56.89
2022-08-23T08:29:14.219Z,57.67
2022-08-23T08:31:44.410Z,56.01
2022-08-23T08:34:13.486Z,54.44
2022-08-23T08:36:43.536Z,54.59
2022-08-23T08:39:18.946Z,53.93
2022-08-23T08:42:04.018Z,52.64
2022-08-23T08:44:42.977Z,53.24
2022-08-23T08:47:18.773Z,52.73
2022-08-23T08:50:06.831Z,52.07
2022-08-23T08:52:44.202Z,51.94
2022-08-23T08:55:23.228Z,51.75
2022-08-23T08:57:55.753Z,51.32
2022-08-23T09:00:29.113Z,51.35
2022-08-23T09:03:00.465Z,51.13
2022-08-23T09:05:34.524Z,51.21
2022-08-23T09:08:08.524Z,52.00
2022-08-23T09:10:47.467Z,51.17
2022-08-23T09:13:31.616Z,51.52
2022-08-23T09:16:05.919Z,50.67
2022-08-23T09:18:35.517Z,50.84
2022-08-23T09:21:06.879Z,50.99
2022-08-23T09:23:39.181Z,51.99
2022-08-23T09:26:24.631Z,51.00
2022-08-23T09:28:59.858Z,50.39
2022-08-23T09:31:49.062Z,50.57
2022-08-23T09:34:24.846Z,50.73
2022-08-23T09:37:06.638Z,50.73
2022-08-23T09:39:37.050Z,50.53
2022-08-23T09:42:10.651Z,51.65
2022-08-23T09:44:41.404Z,51.38
2022-08-23T09:47:09.774Z,50.35
2022-08-23T09:49:38.199Z,49.63
2022-08-23T09:52:24.875Z,49.92
2022-08-23T09:55:00.079Z,50.57
2022-08-23T09:57:30.061Z,49.92
2022-08-23T10:00:23.444Z,49.64
2022-08-23T10:02:57.630Z,48.58
2022-08-23T10:05:40.041Z,48.50
2022-08-23T10:08:10.894Z,48.01
2022-08-23T10:10:50.715Z,47.69
2022-08-23T10:13:21.721Z,47.39
2022-08-23T10:15:58.941Z,48.18
2022-08-23T10:18:36.161Z,47.93
2022-08-23T10:21:27.498Z,47.78
2022-08-23T10:24:12.034Z,46.77
2022-08-23T10:26:51.605Z,46.72
2022-08-23T10:29:38.604Z,46.28
2022-08-23T10:32:35.022Z,46.34
2022-08-23T10:35:23.006Z,46.61
2022-08-23T10:37:54.552Z,45.73
2022-08-23T10:40:34.996Z,45.96
2022-08-23T10:43:30.896Z,46.03
2022-08-23T10:46:02.953Z,45.83
2022-08-23T10:48:38.457Z,46.01
2022-08-23T10:51:22.572Z,45.44
2022-08-23T10:54:06.450Z,45.68
2022-08-23T10:56:36.306Z,45.90
2022-08-23T10:59:17.351Z,45.78
2022-08-23T11:02:01.639Z,45.77
2022-08-23T11:04:37.221Z,45.52
2022-08-23T11:07:21.101Z,45.46
2022-08-23T11:10:17.274Z,45.47
2022-08-23T11:13:13.665Z,45.92
2022-08-23T11:16:16.101Z,46.06
2022-08-23T11:18:51.313Z,46.39
2022-08-23T11:21:19.403Z,46.73
2022-08-23T11:23:59.729Z,46.83
2022-08-23T11:26:27.949Z,46.64
2022-08-23T11:29:25.123Z,46.37
2022-08-23T11:32:06.966Z,45.93
2022-08-23T11:34:36.136Z,46.06
2022-08-23T11:37:20.656Z,45.59
2022-08-23T11:39:58.445Z,45.47
2022-08-23T11:42:29.706Z,45.43
2022-08-23T11:44:57.814Z,45.03
2022-08-23T11:47:40.135Z,45.20
2022-08-23T11:50:23.524Z,45.08
2022-08-23T11:53:06.748Z,44.96
2022-08-23T11:56:05.339Z,46.38
2022-08-23T11:59:13.068Z,46.34
2022-08-23T12:01:42.208Z,47.49
2022-08-23T12:04:15.271Z,48.92
2022-08-23T12:06:50.954Z,49.24
2022-08-23T12:09:22.411Z,48.85
2022-08-23T12:11:56.170Z,47.48
2022-08-23T12:14:30.828Z,46.62
2022-08-23T12:17:04.396Z,45.65
2022-08-23T12:19:40.323Z,44.90
2022-08-23T12:22:12.753Z,44.47
2022-08-23T12:24:47.129Z,44.92
2022-08-23T12:27:20.940Z,44.62
2022-08-23T12:30:12.311Z,44.35
2022-08-23T12:32:58.767Z,43.42
2022-08-23T12:35:49.283Z,42.09
2022-08-23T12:38:31.136Z,40.90
2022-08-23T12:41:14.057Z,41.48
2022-08-23T12:43:55.996Z,40.59
2022-08-23T12:46:35.938Z,40.27
2022-08-23T12:49:05.671Z,40.29
2022-08-23T12:51:41.970Z,40.01
2022-08-23T12:54:16.570Z,39.70
2022-08-23T12:56:50.528Z,39.99
2022-08-23T12:59:44.433Z,40.28
2022-08-23T13:02:19.305Z,40.49
2022-08-23T13:04:47.055Z,40.76
2022-08-23T13:07:20.293Z,41.99
2022-08-23T13:09:53.910Z,43.12
2022-08-23T13:12:24.495Z,43.41
2022-08-23T13:14:55.035Z,43.62
2022-08-23T13:17:26.390Z,42.88
2022-08-23T13:20:13.561Z,42.75
2022-08-23T13:23:17.540Z,42.86
2022-08-23T13:25:45.307Z,42.68
2022-08-23T13:28:28.296Z,43.13
2022-08-23T13:31:09.548Z,43.45
2022-08-23T13:33:42.007Z,43.93
2022-08-23T13:36:23.911Z,43.43
2022-08-23T13:38:56.557Z,43.24
2022-08-23T13:41:38.703Z,43.29
2022-08-23T13:44:28.633Z,43.84
2022-08-23T13:46:56.807Z,44.75
2022-08-23T13:49:28.858Z,44.04
2022-08-23T13:54:54.765Z,43.55
2022-08-23T13:57:31.534Z,42.84
2022-08-23T14:00:22.761Z,43.03
2022-08-23T14:03:07.854Z,44.50
2022-08-23T14:05:57.917Z,43.91
2022-08-23T14:08:28.409Z,43.73
2022-08-23T14:10:56.328Z,44.31
2022-08-23T14:13:36.185Z,44.37
2022-08-23T14:16:39.750Z,43.63
2022-08-23T14:19:16.938Z,44.20
2022-08-23T14:22:10.001Z,43.98
2022-08-23T14:24:45.662Z,44.19
2022-08-23T14:27:37.216Z,43.94
2022-08-23T14:30:23.358Z,44.70
2022-08-23T14:32:55.949Z,43.93
2022-08-23T14:38:50.037Z,44.70
2022-08-23T14:41:22.737Z,43.20
2022-08-23T14:43:55.610Z,44.14
2022-08-23T14:46:24.340Z,43.36
2022-08-23T14:48:52.342Z,42.80
2022-08-23T14:51:23.425Z,42.72
2022-08-23T14:53:52.676Z,43.33
2022-08-23T14:56:21.959Z,44.10
2022-08-23T14:58:50.652Z,43.19
2022-08-23T15:01:19.479Z,44.25
2022-08-23T15:03:48.636Z,43.65
2022-08-23T15:06:19.106Z,43.18
2022-08-23T15:08:48.576Z,42.74
2022-08-23T15:14:08.105Z,41.74
2022-08-23T15:16:36.085Z,42.87
2022-08-23T15:19:04.922Z,42.60
2022-08-23T15:21:33.318Z,43.09
2022-08-23T15:24:01.222Z,42.64
2022-08-23T15:26:33.923Z,42.16
2022-08-23T15:29:05.132Z,41.73
2022-08-23T15:31:33.741Z,41.86
2022-08-23T15:34:07.344Z,42.04
2022-08-23T15:36:42.281Z,42.30
2022-08-23T15:39:13.586Z,41.82
2022-08-23T15:41:45.296Z,43.04
2022-08-23T15:44:17.270Z,42.52
2022-08-23T15:46:47.656Z,42.84
2022-08-23T15:49:17.702Z,43.36
2022-08-23T15:51:49.964Z,43.30
2022-08-23T15:54:21.776Z,43.57
2022-08-23T15:56:50.577Z,43.60
2022-08-23T15:59:19.764Z,43.47
2022-08-23T16:01:48.639Z,43.81
2022-08-23T16:04:18.922Z,44.11
2022-08-23T16:06:49.544Z,44.19
2022-08-23T16:09:22.353Z,44.55
2022-08-23T16:11:51.397Z,44.13
2022-08-23T16:14:20.181Z,44.15
2022-08-23T16:16:48.567Z,44.66
2022-08-23T16:19:16.948Z,45.21
2022-08-23T16:21:45.823Z,44.86
2022-08-23T16:24:14.468Z,45.07
2022-08-23T16:26:45.409Z,44.81
2022-08-23T16:29:17.397Z,44.85
2022-08-23T16:31:46.258Z,45.26
2022-08-23T16:34:20.239Z,45.38
2022-08-23T16:36:59.254Z,45.35
2022-08-23T16:39:28.919Z,46.24
2022-08-23T16:41:57.138Z,45.73
2022-08-23T16:44:25.169Z,45.63
2022-08-23T16:46:54.389Z,45.87
2022-08-23T16:49:22.472Z,46.01
2022-08-23T16:51:50.946Z,46.51
2022-08-23T16:54:19.526Z,46.28
2022-08-23T16:56:48.646Z,46.18
2022-08-23T16:59:20.002Z,46.36
2022-08-23T17:01:52.275Z,46.52
2022-08-23T17:04:30.626Z,46.92
2022-08-23T17:07:01.837Z,46.71
2022-08-23T17:09:30.495Z,46.75
2022-08-23T17:11:58.725Z,46.96
2022-08-23T17:14:27.064Z,47.43
2022-08-23T17:16:55.525Z,48.06
2022-08-23T17:19:23.667Z,48.76
2022-08-23T17:21:52.082Z,49.23
2022-08-23T17:24:19.866Z,49.14
2022-08-23T17:26:48.816Z,49.34
2022-08-23T17:29:17.017Z,49.69
2022-08-23T17:31:48.868Z,49.36
2022-08-23T17:34:17.437Z,49.65
2022-08-23T17:36:51.892Z,49.70
2022-08-23T17:39:27.411Z,50.32
2022-08-23T17:41:58.871Z,51.01
2022-08-23T17:44:27.183Z,50.12
2022-08-23T17:46:55.191Z,50.49
2022-08-23T17:49:23.252Z,51.47
2022-08-23T17:51:51.835Z,51.10
2022-08-23T17:54:19.781Z,51.13
2022-08-23T17:56:50.659Z,50.96
2022-08-23T17:59:19.889Z,51.93
2022-08-23T18:01:48.127Z,51.49
2022-08-23T18:04:16.360Z,51.85
2022-08-23T18:06:46.527Z,52.05
2022-08-23T18:09:14.648Z,53.80
2022-08-23T18:11:43.640Z,53.94
2022-08-23T18:14:12.265Z,55.68
2022-08-23T18:16:40.338Z,54.29
2022-08-23T18:19:14.174Z,54.83
2022-08-23T18:21:43.131Z,56.61
2022-08-23T18:24:11.717Z,55.81
2022-08-23T18:26:59.327Z,56.14
2022-08-23T18:29:29.543Z,55.84
2022-08-23T18:31:58.393Z,55.69
2022-08-23T18:34:27.129Z,55.35
2022-08-23T18:36:55.937Z,55.67
2022-08-23T18:39:31.593Z,54.73
2022-08-23T18:42:01.855Z,54.70
2022-08-23T18:44:31.063Z,54.95
2022-08-23T18:47:01.320Z,55.70
2022-08-23T18:49:32.513Z,55.95
2022-08-23T18:52:02.354Z,56.36
2022-08-23T18:54:34.018Z,56.38
2022-08-23T18:57:04.718Z,56.44
2022-08-23T18:59:33.602Z,56.46
2022-08-23T19:02:02.280Z,57.03
2022-08-23T19:04:30.683Z,56.99
2022-08-23T19:06:59.876Z,57.21
2022-08-23T19:09:27.852Z,57.39
2022-08-23T19:11:56.877Z,57.28
2022-08-23T19:14:27.904Z,56.99
2022-08-23T19:16:56.304Z,57.76
2022-08-23T19:19:42.951Z,57.73
2022-08-23T19:22:11.000Z,57.62
2022-08-23T19:24:41.138Z,57.44
2022-08-23T19:27:09.605Z,57.86
2022-08-23T19:29:37.774Z,59.13
2022-08-23T19:32:07.530Z,58.64
2022-08-23T19:34:36.251Z,58.86
2022-08-23T19:37:05.496Z,58.65
2022-08-23T19:39:39.150Z,59.73
2022-08-23T19:42:11.554Z,60.97
2022-08-23T19:44:42.377Z,59.15
2022-08-23T19:47:19.591Z,59.76
2022-08-23T19:49:49.158Z,59.23
2022-08-23T19:52:17.809Z,59.22
2022-08-23T19:54:46.899Z,60.54
2022-08-23T19:57:16.129Z,61.13
2022-08-23T19:59:45.036Z,59.74
2022-08-23T20:02:14.645Z,59.27
2022-08-23T20:04:43.476Z,59.53
2022-08-23T20:07:12.374Z,60.70
2022-08-23T20:09:40.996Z,60.25
2022-08-23T20:12:10.108Z,60.83
2022-08-23T20:14:39.686Z,59.46
2022-08-23T20:17:08.622Z,60.33
2022-08-23T20:19:45.039Z,62.03
2022-08-23T20:22:55.039Z,61.01
2022-08-23T20:25:30.408Z,60.94
2022-08-23T20:28:00.265Z,61.29
2022-08-23T20:30:31.740Z,60.81
2022-08-23T20:33:02.360Z,62.14
2022-08-23T20:35:31.513Z,61.54
2022-08-23T20:37:59.991Z,61.77
2022-08-23T20:40:28.306Z,61.28
2022-08-23T20:42:57.580Z,61.48
2022-08-23T20:45:25.675Z,61.54
2022-08-23T20:47:53.341Z,63.10
2022-08-23T20:50:21.687Z,61.51
2022-08-23T20:52:49.685Z,61.56
2022-08-23T20:55:18.488Z,61.78
2022-08-23T20:57:47.079Z,61.70
2022-08-23T21:00:15.193Z,61.60
2022-08-23T21:02:43.254Z,61.49
2022-08-23T21:05:11.699Z,60.52
2022-08-23T21:07:39.938Z,61.01
2022-08-23T21:10:10.366Z,63.21
2022-08-23T21:12:39.444Z,62.32
2022-08-23T21:15:10.925Z,62.58
2022-08-23T21:17:40.568Z,63.44
2022-08-23T21:20:09.345Z,62.66
2022-08-23T21:22:37.570Z,62.90
2022-08-23T21:25:06.335Z,64.24
2022-08-23T21:27:35.328Z,63.98
2022-08-23T21:30:05.757Z,62.81
2022-08-23T21:32:34.444Z,63.79
2022-08-23T21:35:02.631Z,62.89
2022-08-23T21:37:31.507Z,62.71
2022-08-23T21:39:59.918Z,63.65
2022-08-23T21:42:28.309Z,64.24
2022-08-23T21:44:56.903Z,64.88
2022-08-23T21:47:26.230Z,64.53
2022-08-23T21:49:54.516Z,65.35
2022-08-23T21:52:24.348Z,65.49
2022-08-23T21:54:53.688Z,64.33
2022-08-23T21:57:21.813Z,64.07
2022-08-23T21:59:49.712Z,64.43
2022-08-23T22:02:19.548Z,63.60
2022-08-23T22:04:50.504Z,64.66
2022-08-23T22:07:18.813Z,64.86
2022-08-23T22:10:07.012Z,64.53
2022-08-23T22:12:40.242Z,64.02
2022-08-23T22:15:10.626Z,64.37
2022-08-23T22:17:46.174Z,65.00
2022-08-23T22:20:15.720Z,65.27
2022-08-23T22:22:49.943Z,64.63
2022-08-23T22:25:19.471Z,65.35
2022-08-23T22:27:49.781Z,65.66
2022-08-23T22:30:19.356Z,66.77
2022-08-23T22:32:51.559Z,65.70
2022-08-23T22:35:24.434Z,66.45
2022-08-23T22:38:12.649Z,66.67
2022-08-23T22:40:56.012Z,67.21
2022-08-23T22:43:27.682Z,66.40
2022-08-23T22:45:58.779Z,66.34
2022-08-23T22:48:31.759Z,66.57
2022-08-23T22:51:07.113Z,67.62
2022-08-23T22:53:59.269Z,67.47
2022-08-23T22:56:33.785Z,68.04
2022-08-23T22:59:03.465Z,68.26
2022-08-23T23:01:39.349Z,68.37
2022-08-23T23:04:14.271Z,68.98
2022-08-23T23:06:44.041Z,67.07
2022-08-23T23:09:16.245Z,68.20
2022-08-23T23:11:47.969Z,68.89
2022-08-23T23:14:19.897Z,67.45
2022-08-23T23:16:53.787Z,68.04
2022-08-23T23:19:45.918Z,67.03
2022-08-23T23:22:15.665Z,67.01
2022-08-23T23:24:48.511Z,67.57
2022-08-23T23:27:17.645Z,67.75
2022-08-23T23:29:48.167Z,66.81
2022-08-23T23:32:21.788Z,67.03
2022-08-23T23:34:55.053Z,67.17
2022-08-23T23:37:26.705Z,66.53
2022-08-23T23:39:56.416Z,67.51
2022-08-23T23:42:28.452Z,66.31
2022-08-23T23:45:02.601Z,68.10
2022-08-23T23:47:33.951Z,67.10
2022-08-23T23:50:07.347Z,67.57
2022-08-23T23:52:39.575Z,67.37
2022-08-23T23:55:19.705Z,67.84
2022-08-23T23:57:50.368Z,68.61
